nws-alerts: Checking more than four warning/county codes can delay the loading of your pages. You should use a cron job to get the data.
EllijayWeather Station Historical Data
Daily Summary for February 14, 2018 Units:  English    Metric   Both
Daily Weekly Monthly Yearly Custom
  High: Low: Average:
Temperature: 61.0 °F 44.8 °F 52.5 °F
Dew Point: 57.4 °F 43.2 °F 51 °F
Humidity: 98% 86% 95%
Wind Speed: 0.0mph 0.0mph 0mph
Wind Gust: 0.0mph - -
Wind- - North
Pressure: 30.56 in 30.33 in -
Precipitation: 0.11 in    
Historical Graphs
 
 
Tabular Data for February 14, 2018
Time Temperature Dew Point Pressure Wind Wind Speed Wind Gust Humidity Rainfall Rate (Hourly) solar
00:05 46.9 °F 45.0 °F 30.56 in Calm     93% 0.00 in meteobridge W/m2
00:11 46.8 °F 44.8 °F 30.56 in Calm     93% 0.00 in meteobridge W/m2
00:16 46.6 °F 44.6 °F 30.56 in Calm     93% 0.00 in meteobridge W/m2
00:21 46.4 °F 44.4 °F 30.56 in Calm     93% 0.00 in meteobridge W/m2
00:26 46.2 °F 44.2 °F 30.56 in Calm     93% 0.00 in meteobridge W/m2
00:31 46.0 °F 44.1 °F 30.55 in Calm     93% 0.00 in meteobridge W/m2
00:36 45.9 °F 43.9 °F 30.56 in Calm     93% 0.00 in meteobridge W/m2
00:41 45.7 °F 44.1 °F 30.56 in Calm     94% 0.00 in meteobridge W/m2
00:47 45.5 °F 43.9 °F 30.56 in Calm     94% 0.00 in meteobridge W/m2
00:52 45.3 °F 43.7 °F 30.56 in Calm     94% 0.00 in meteobridge W/m2
00:58 45.1 °F 43.5 °F 30.56 in Calm     94% 0.00 in meteobridge W/m2
01:03 45.0 °F 43.3 °F 30.56 in Calm     94% 0.00 in meteobridge W/m2
01:08 45.0 °F 43.3 °F 30.56 in Calm     94% 0.00 in meteobridge W/m2
01:13 44.8 °F 43.2 °F 30.56 in Calm     94% 0.00 in meteobridge W/m2
01:18 44.8 °F 43.2 °F 30.56 in Calm     94% 0.00 in meteobridge W/m2
01:24 44.8 °F 43.5 °F 30.56 in Calm     95% 0.00 in meteobridge W/m2
01:29 45.0 °F 43.7 °F 30.56 in Calm     95% 0.00 in meteobridge W/m2
01:34 45.0 °F 43.7 °F 30.56 in Calm     95% 0.00 in meteobridge W/m2
01:39 45.1 °F 43.9 °F 30.56 in Calm     95% 0.00 in meteobridge W/m2
01:44 45.1 °F 43.9 °F 30.56 in Calm     95% 0.00 in meteobridge W/m2
01:49 45.3 °F 44.1 °F 30.56 in Calm     95% 0.00 in meteobridge W/m2
01:54 45.3 °F 44.1 °F 30.56 in Calm     95% 0.00 in meteobridge W/m2
01:59 45.5 °F 44.2 °F 30.56 in Calm     95% 0.00 in meteobridge W/m2
02:05 45.7 °F 44.4 °F 30.55 in Calm     95% 0.00 in meteobridge W/m2
02:10 45.7 °F 44.4 °F 30.55 in Calm     95% 0.00 in meteobridge W/m2
02:16 45.9 °F 44.4 °F 30.55 in Calm     95% 0.00 in meteobridge W/m2
02:21 45.9 °F 44.4 °F 30.55 in Calm     95% 0.00 in meteobridge W/m2
02:27 45.9 °F 44.8 °F 30.54 in Calm     96% 0.00 in meteobridge W/m2
02:32 46.0 °F 45.0 °F 30.55 in Calm     96% 0.00 in meteobridge W/m2
02:37 46.0 °F 45.0 °F 30.55 in Calm     96% 0.00 in meteobridge W/m2
02:42 46.0 °F 44.6 °F 30.55 in Calm     95% 0.00 in meteobridge W/m2
02:48 46.0 °F 44.6 °F 30.55 in Calm     95% 0.00 in meteobridge W/m2
02:54 46.2 °F 45.1 °F 30.54 in Calm     96% 0.00 in meteobridge W/m2
02:59 46.2 °F 44.8 °F 30.55 in Calm     95% 0.00 in meteobridge W/m2
03:04 46.2 °F 44.8 °F 30.54 in Calm     95% 0.00 in meteobridge W/m2
03:10 46.4 °F 45.0 °F 30.53 in Calm     95% 0.00 in meteobridge W/m2
03:16 46.4 °F 45.0 °F 30.53 in Calm     95% 0.00 in meteobridge W/m2
03:21 46.2 °F 44.8 °F 30.52 in Calm     95% 0.00 in meteobridge W/m2
03:26 46.2 °F 44.8 °F 30.52 in Calm     95% 0.00 in meteobridge W/m2
03:31 46.0 °F 44.6 °F 30.52 in Calm     95% 0.00 in meteobridge W/m2
03:37 46.0 °F 44.6 °F 30.52 in Calm     95% 0.00 in meteobridge W/m2
03:43 46.0 °F 44.6 °F 30.53 in Calm     95% 0.00 in meteobridge W/m2
03:48 46.0 °F 45.0 °F 30.52 in Calm     96% 0.00 in meteobridge W/m2
03:53 46.0 °F 45.0 °F 30.52 in Calm     96% 0.00 in meteobridge W/m2
03:58 46.0 °F 45.0 °F 30.51 in Calm     96% 0.00 in meteobridge W/m2
04:02 46.0 °F 44.6 °F 30.51 in Calm     95% 0.00 in meteobridge W/m2
04:03 46.0 °F 44.6 °F 30.51 in Calm     95% 0.00 in meteobridge W/m2
04:09 45.9 °F 44.8 °F 30.51 in Calm     96% 0.00 in meteobridge W/m2
04:14 46.0 °F 45.0 °F 30.51 in Calm     96% 0.00 in meteobridge W/m2
04:20 46.0 °F 45.0 °F 30.51 in Calm     96% 0.00 in meteobridge W/m2
04:25 46.0 °F 45.0 °F 30.51 in Calm     96% 0.00 in meteobridge W/m2
04:30 46.0 °F 45.0 °F 30.51 in Calm     96% 0.00 in meteobridge W/m2
04:35 46.0 °F 45.0 °F 30.51 in Calm     96% 0.00 in meteobridge W/m2
04:41 46.0 °F 45.0 °F 30.51 in Calm     96% 0.00 in meteobridge W/m2
04:47 46.0 °F 45.0 °F 30.51 in Calm     96% 0.00 in meteobridge W/m2
04:52 46.0 °F 45.0 °F 30.51 in Calm     96% 0.00 in meteobridge W/m2
04:58 46.0 °F 45.0 °F 30.51 in Calm     96% 0.00 in meteobridge W/m2
05:03 46.0 °F 45.0 °F 30.52 in Calm     96% 0.00 in meteobridge W/m2
05:09 46.0 °F 45.0 °F 30.52 in Calm     96% 0.00 in meteobridge W/m2
05:14 46.0 °F 45.0 °F 30.51 in Calm     96% 0.00 in meteobridge W/m2
05:19 46.2 °F 45.1 °F 30.51 in Calm     96% 0.00 in meteobridge W/m2
05:24 46.2 °F 45.1 °F 30.51 in Calm     96% 0.00 in meteobridge W/m2
05:29 46.2 °F 45.1 °F 30.51 in Calm     96% 0.00 in meteobridge W/m2
05:35 46.2 °F 45.1 °F 30.50 in Calm     96% 0.00 in meteobridge W/m2
05:40 46.2 °F 45.1 °F 30.51 in Calm     96% 0.00 in meteobridge W/m2
05:46 46.2 °F 45.1 °F 30.52 in Calm     96% 0.00 in meteobridge W/m2
05:51 46.2 °F 45.1 °F 30.52 in Calm     96% 0.00 in meteobridge W/m2
05:57 46.2 °F 45.1 °F 30.52 in Calm     96% 0.00 in meteobridge W/m2
06:03 46.2 °F 45.1 °F 30.52 in Calm     96% 0.00 in meteobridge W/m2
06:08 46.2 °F 45.1 °F 30.52 in Calm     96% 0.00 in meteobridge W/m2
06:13 46.4 °F 45.3 °F 30.52 in Calm     96% 0.00 in meteobridge W/m2
06:19 46.4 °F 45.3 °F 30.53 in Calm     96% 0.00 in meteobridge W/m2
06:24 46.4 °F 45.3 °F 30.53 in Calm     96% 0.00 in meteobridge W/m2
06:29 46.4 °F 45.3 °F 30.53 in Calm     96% 0.00 in meteobridge W/m2
06:34 46.6 °F 45.5 °F 30.53 in Calm     96% 0.00 in meteobridge W/m2
06:39 46.6 °F 45.5 °F 30.53 in Calm     96% 0.00 in meteobridge W/m2
06:45 46.6 °F 45.5 °F 30.53 in Calm     96% 0.00 in meteobridge W/m2
06:50 46.6 °F 45.5 °F 30.53 in Calm     96% 0.00 in meteobridge W/m2
06:56 46.6 °F 45.5 °F 30.53 in Calm     96% 0.00 in meteobridge W/m2
07:02 46.6 °F 45.5 °F 30.53 in Calm     96% 0.00 in meteobridge W/m2
07:08 46.6 °F 45.5 °F 30.53 in Calm     96% 0.00 in meteobridge W/m2
07:13 46.6 °F 45.5 °F 30.53 in Calm     96% 0.00 in meteobridge W/m2
07:19 46.6 °F 45.5 °F 30.53 in Calm     96% 0.00 in meteobridge W/m2
07:24 46.6 °F 45.5 °F 30.53 in Calm     96% 0.00 in meteobridge W/m2
07:29 46.6 °F 45.5 °F 30.53 in Calm     96% 0.00 in meteobridge W/m2
07:35 46.6 °F 45.5 °F 30.53 in Calm     96% 0.00 in meteobridge W/m2
07:41 46.6 °F 45.5 °F 30.54 in Calm     96% 0.00 in meteobridge W/m2
07:46 46.6 °F 45.5 °F 30.53 in Calm     96% 0.00 in meteobridge W/m2
07:51 46.8 °F 45.7 °F 30.53 in Calm     96% 0.00 in meteobridge W/m2
07:56 46.8 °F 45.7 °F 30.54 in Calm     96% 0.00 in meteobridge W/m2
08:02 46.8 °F 45.7 °F 30.54 in Calm     96% 0.00 in meteobridge W/m2
08:07 46.8 °F 45.7 °F 30.53 in Calm     96% 0.00 in meteobridge W/m2
08:12 46.8 °F 45.7 °F 30.53 in Calm     96% 0.00 in meteobridge W/m2
08:17 46.8 °F 45.7 °F 30.53 in Calm     96% 0.01 in meteobridge W/m2
08:22 46.9 °F 45.9 °F 30.53 in Calm     96% 0.01 in meteobridge W/m2
08:27 46.9 °F 45.9 °F 30.52 in Calm     96% 0.01 in meteobridge W/m2
08:32 47.1 °F 46.4 °F 30.53 in Calm     97% 0.01 in meteobridge W/m2
08:38 47.1 °F 46.4 °F 30.53 in Calm     97% 0.01 in meteobridge W/m2
08:43 47.5 °F 46.8 °F 30.53 in Calm     97% 0.01 in meteobridge W/m2
08:48 47.5 °F 46.8 °F 30.53 in Calm     97% 0.01 in meteobridge W/m2
08:54 47.7 °F 46.9 °F 30.53 in Calm     97% 0.01 in meteobridge W/m2
08:59 47.7 °F 46.9 °F 30.53 in Calm     97% 0.01 in meteobridge W/m2
09:05 47.8 °F 46.9 °F 30.53 in Calm     97% 0.01 in meteobridge W/m2
09:10 47.8 °F 46.9 °F 30.53 in Calm     97% 0.02 in meteobridge W/m2
09:15 48.0 °F 47.1 °F 30.53 in Calm     97% 0.01 in meteobridge W/m2
09:20 48.0 °F 47.1 °F 30.54 in Calm     97% 0.01 in meteobridge W/m2
09:25 48.0 °F 47.1 °F 30.54 in Calm     97% 0.01 in meteobridge W/m2
09:30 48.2 °F 47.3 °F 30.54 in Calm     97% 0.01 in meteobridge W/m2
09:36 48.2 °F 47.3 °F 30.53 in Calm     97% 0.01 in meteobridge W/m2
09:41 48.4 °F 47.5 °F 30.53 in Calm     97% 0.02 in meteobridge W/m2
09:47 48.4 °F 47.5 °F 30.53 in Calm     97% 0.02 in meteobridge W/m2
09:52 48.6 °F 47.7 °F 30.53 in Calm     97% 0.02 in meteobridge W/m2
09:58 48.6 °F 47.7 °F 30.53 in Calm     97% 0.02 in meteobridge W/m2
10:04 48.7 °F 47.8 °F 30.52 in Calm     97% 0.03 in meteobridge W/m2
10:09 48.7 °F 47.8 °F 30.53 in Calm     97% 0.03 in meteobridge W/m2
10:15 48.9 °F 48.0 °F 30.53 in Calm     97% 0.03 in meteobridge W/m2
10:20 49.1 °F 48.2 °F 30.53 in Calm     97% 0.03 in meteobridge W/m2
10:26 49.3 °F 48.4 °F 30.51 in Calm     97% 0.04 in meteobridge W/m2
10:31 49.5 °F 48.6 °F 30.51 in Calm     97% 0.04 in meteobridge W/m2
10:37 49.5 °F 48.6 °F 30.50 in Calm     97% 0.04 in meteobridge W/m2
10:43 49.6 °F 48.7 °F 30.52 in Calm     97% 0.03 in meteobridge W/m2
10:48 49.8 °F 48.9 °F 30.52 in Calm     97% 0.04 in meteobridge W/m2
10:53 50.0 °F 49.1 °F 30.52 in Calm     97% 0.04 in meteobridge W/m2
10:59 50.2 °F 49.3 °F 30.52 in Calm     97% 0.03 in meteobridge W/m2
11:04 50.4 °F 49.5 °F 30.52 in Calm     97% 0.03 in meteobridge W/m2
11:09 50.4 °F 49.5 °F 30.52 in Calm     97% 0.02 in meteobridge W/m2
11:14 50.5 °F 49.6 °F 30.52 in Calm     97% 0.02 in meteobridge W/m2
11:20 50.7 °F 49.8 °F 30.51 in Calm     97% 0.02 in meteobridge W/m2
11:26 50.9 °F 50.0 °F 30.51 in Calm     97% 0.02 in meteobridge W/m2
11:31 51.1 °F 50.2 °F 30.51 in Calm     97% 0.02 in meteobridge W/m2
11:36 51.3 °F 50.4 °F 30.51 in Calm     97% 0.02 in meteobridge W/m2
11:41 51.3 °F 50.4 °F 30.51 in Calm     97% 0.02 in meteobridge W/m2
11:47 51.4 °F 50.5 °F 30.51 in Calm     97% 0.01 in meteobridge W/m2
11:52 51.4 °F 50.5 °F 30.50 in Calm     97% 0.01 in meteobridge W/m2
11:57 51.4 °F 50.5 °F 30.51 in Calm     97% 0.01 in meteobridge W/m2
12:02 51.6 °F 50.7 °F 30.50 in Calm     97% 0.01 in meteobridge W/m2
12:08 52.2 °F 51.3 °F 30.50 in Calm     97% 0.01 in meteobridge W/m2
12:13 52.3 °F 51.4 °F 30.49 in Calm     97% 0.01 in meteobridge W/m2
12:19 52.5 °F 51.6 °F 30.49 in Calm     97% 0.01 in meteobridge W/m2
12:24 52.9 °F 52.3 °F 30.49 in Calm     98% 0.01 in meteobridge W/m2
12:29 53.1 °F 52.2 °F 30.49 in Calm     97% 0.00 in meteobridge W/m2
12:35 53.4 °F 52.9 °F 30.48 in Calm     98% 0.00 in meteobridge W/m2
12:40 53.6 °F 53.1 °F 30.47 in Calm     98% 0.00 in meteobridge W/m2
12:46 54.0 °F 53.1 °F 30.47 in Calm     97% 0.00 in meteobridge W/m2
12:51 54.3 °F 53.4 °F 30.47 in Calm     97% 0.00 in meteobridge W/m2
12:56 55.0 °F 54.1 °F 30.46 in Calm     97% 0.00 in meteobridge W/m2
13:02 55.6 °F 55.0 °F 30.45 in Calm     98% 0.00 in meteobridge W/m2
13:07 55.9 °F 55.4 °F 30.45 in Calm     98% 0.00 in meteobridge W/m2
13:12 56.1 °F 55.6 °F 30.45 in Calm     98% 0.00 in meteobridge W/m2
13:17 56.3 °F 55.4 °F 30.44 in Calm     97% 0.00 in meteobridge W/m2
13:23 56.7 °F 56.1 °F 30.44 in Calm     98% 0.00 in meteobridge W/m2
13:28 57.0 °F 56.5 °F 30.43 in Calm     98% 0.00 in meteobridge W/m2
13:33 57.4 °F 56.8 °F 30.44 in Calm     98% 0.00 in meteobridge W/m2
13:38 57.6 °F 57.0 °F 30.43 in Calm     98% 0.00 in meteobridge W/m2
13:44 57.7 °F 57.2 °F 30.43 in Calm     98% 0.00 in meteobridge W/m2
13:49 57.9 °F 57.4 °F 30.43 in Calm     98% 0.00 in meteobridge W/m2
13:54 57.7 °F 56.8 °F 30.42 in Calm     97% 0.00 in meteobridge W/m2
14:00 57.7 °F 56.8 °F 30.42 in Calm     97% 0.00 in meteobridge W/m2
14:05 57.7 °F 56.8 °F 30.42 in Calm     97% 0.00 in meteobridge W/m2
14:10 57.9 °F 56.8 °F 30.42 in Calm     96% 0.00 in meteobridge W/m2
14:16 58.1 °F 57.0 °F 30.42 in Calm     96% 0.00 in meteobridge W/m2
14:21 58.3 °F 56.8 °F 30.42 in Calm     95% 0.00 in meteobridge W/m2
14:26 58.5 °F 57.0 °F 30.41 in Calm     95% 0.00 in meteobridge W/m2
14:31 58.6 °F 56.8 °F 30.41 in Calm     94% 0.00 in meteobridge W/m2
14:37 58.8 °F 56.8 °F 30.40 in Calm     93% 0.00 in meteobridge W/m2
14:42 59.2 °F 57.2 °F 30.41 in Calm     93% 0.00 in meteobridge W/m2
14:48 59.2 °F 56.8 °F 30.40 in Calm     92% 0.00 in meteobridge W/m2
14:53 59.4 °F 56.7 °F 30.40 in Calm     91% 0.00 in meteobridge W/m2
14:58 59.5 °F 57.2 °F 30.40 in Calm     92% 0.00 in meteobridge W/m2
15:04 59.9 °F 57.2 °F 30.40 in Calm     91% 0.00 in meteobridge W/m2
15:09 60.1 °F 57.2 °F 30.40 in Calm     90% 0.00 in meteobridge W/m2
15:14 59.9 °F 56.7 °F 30.40 in Calm     89% 0.00 in meteobridge W/m2
15:19 59.7 °F 56.5 °F 30.40 in Calm     89% 0.00 in meteobridge W/m2
15:25 59.9 °F 56.7 °F 30.39 in Calm     89% 0.00 in meteobridge W/m2
15:30 60.1 °F 56.5 °F 30.39 in Calm     88% 0.00 in meteobridge W/m2
15:36 60.3 °F 57.0 °F 30.38 in Calm     89% 0.00 in meteobridge W/m2
15:41 60.4 °F 57.2 °F 30.38 in Calm     89% 0.00 in meteobridge W/m2
15:46 60.8 °F 57.2 °F 30.38 in Calm     88% 0.00 in meteobridge W/m2
15:51 61.0 °F 57.0 °F 30.37 in Calm     87% 0.00 in meteobridge W/m2
15:58 61.0 °F 56.8 °F 30.37 in Calm     86% 0.00 in meteobridge W/m2
16:03 60.8 °F 56.7 °F 30.37 in Calm     86% 0.00 in meteobridge W/m2
16:08 60.6 °F 56.7 °F 30.37 in Calm     87% 0.00 in meteobridge W/m2
16:13 60.6 °F 56.7 °F 30.37 in Calm     87% 0.00 in meteobridge W/m2
16:19 60.6 °F 56.7 °F 30.37 in Calm     87% 0.00 in meteobridge W/m2
16:24 60.8 °F 56.8 °F 30.37 in Calm     87% 0.00 in meteobridge W/m2
16:29 61.0 °F 57.4 °F 30.37 in Calm     88% 0.00 in meteobridge W/m2
16:34 61.0 °F 57.0 °F 30.37 in Calm     87% 0.00 in meteobridge W/m2
16:39 61.0 °F 56.8 °F 30.37 in Calm     86% 0.00 in meteobridge W/m2
16:44 61.0 °F 57.0 °F 30.36 in Calm     87% 0.00 in meteobridge W/m2
16:49 61.0 °F 57.4 °F 30.37 in Calm     88% 0.00 in meteobridge W/m2
16:55 61.0 °F 57.4 °F 30.36 in Calm     88% 0.00 in meteobridge W/m2
17:00 60.8 °F 57.2 °F 30.36 in Calm     88% 0.00 in meteobridge W/m2
17:05 60.6 °F 57.0 °F 30.37 in Calm     88% 0.00 in meteobridge W/m2
17:10 60.6 °F 57.0 °F 30.36 in Calm     88% 0.00 in meteobridge W/m2
17:15 60.4 °F 56.8 °F 30.36 in Calm     88% 0.00 in meteobridge W/m2
17:21 60.4 °F 56.8 °F 30.37 in Calm     88% 0.00 in meteobridge W/m2
17:26 60.4 °F 57.2 °F 30.36 in Calm     89% 0.00 in meteobridge W/m2
17:31 60.3 °F 57.0 °F 30.37 in Calm     89% 0.00 in meteobridge W/m2
17:37 60.3 °F 57.0 °F 30.37 in Calm     89% 0.00 in meteobridge W/m2
17:43 60.1 °F 56.8 °F 30.37 in Calm     89% 0.00 in meteobridge W/m2
17:48 60.1 °F 56.8 °F 30.36 in Calm     89% 0.00 in meteobridge W/m2
17:53 59.9 °F 56.7 °F 30.36 in Calm     89% 0.00 in meteobridge W/m2
17:59 59.7 °F 56.5 °F 30.36 in Calm     89% 0.00 in meteobridge W/m2
18:05 59.7 °F 56.8 °F 30.35 in Calm     90% 0.00 in meteobridge W/m2
18:10 59.7 °F 56.8 °F 30.36 in Calm     90% 0.00 in meteobridge W/m2
18:15 59.5 °F 56.7 °F 30.36 in Calm     90% 0.00 in meteobridge W/m2
18:20 59.5 °F 56.7 °F 30.35 in Calm     90% 0.00 in meteobridge W/m2
18:26 59.4 °F 56.5 °F 30.35 in Calm     90% 0.00 in meteobridge W/m2
18:31 59.4 °F 56.7 °F 30.35 in Calm     91% 0.00 in meteobridge W/m2
18:37 59.2 °F 56.5 °F 30.35 in Calm     91% 0.00 in meteobridge W/m2
18:42 59.0 °F 56.3 °F 30.35 in Calm     91% 0.00 in meteobridge W/m2
18:48 58.8 °F 56.5 °F 30.35 in Calm     92% 0.00 in meteobridge W/m2
18:53 58.8 °F 56.5 °F 30.35 in Calm     92% 0.00 in meteobridge W/m2
18:58 58.6 °F 56.3 °F 30.35 in Calm     92% 0.00 in meteobridge W/m2
19:04 58.6 °F 56.3 °F 30.35 in Calm     92% 0.00 in meteobridge W/m2
19:09 58.5 °F 56.1 °F 30.35 in Calm     92% 0.00 in meteobridge W/m2
19:14 58.5 °F 56.5 °F 30.35 in Calm     93% 0.00 in meteobridge W/m2
19:19 58.5 °F 56.1 °F 30.35 in Calm     92% 0.00 in meteobridge W/m2
19:24 58.5 °F 56.1 °F 30.35 in Calm     92% 0.00 in meteobridge W/m2
19:29 58.5 °F 56.5 °F 30.35 in Calm     93% 0.00 in meteobridge W/m2
19:34 58.5 °F 56.5 °F 30.35 in Calm     93% 0.00 in meteobridge W/m2
19:40 58.3 °F 56.3 °F 30.35 in Calm     93% 0.00 in meteobridge W/m2
19:45 58.3 °F 56.3 °F 30.35 in Calm     93% 0.00 in meteobridge W/m2
19:51 58.1 °F 56.3 °F 30.35 in Calm     94% 0.00 in meteobridge W/m2
19:56 58.1 °F 56.3 °F 30.35 in Calm     94% 0.00 in meteobridge W/m2
20:01 58.1 °F 56.3 °F 30.35 in Calm     94% 0.00 in meteobridge W/m2
20:07 57.9 °F 56.1 °F 30.35 in Calm     94% 0.00 in meteobridge W/m2
20:12 57.9 °F 56.1 °F 30.35 in Calm     94% 0.00 in meteobridge W/m2
20:18 57.9 °F 56.1 °F 30.35 in Calm     94% 0.00 in meteobridge W/m2
20:23 57.7 °F 55.9 °F 30.35 in Calm     94% 0.00 in meteobridge W/m2
20:29 57.7 °F 56.3 °F 30.35 in Calm     95% 0.00 in meteobridge W/m2
20:34 57.7 °F 56.3 °F 30.36 in Calm     95% 0.00 in meteobridge W/m2
20:39 57.7 °F 56.3 °F 30.35 in Calm     95% 0.00 in meteobridge W/m2
20:44 57.7 °F 56.3 °F 30.36 in Calm     95% 0.00 in meteobridge W/m2
20:49 57.7 °F 56.3 °F 30.36 in Calm     95% 0.00 in meteobridge W/m2
20:54 57.7 °F 56.3 °F 30.36 in Calm     95% 0.01 in meteobridge W/m2
20:59 57.6 °F 56.1 °F 30.36 in Calm     95% 0.01 in meteobridge W/m2
21:04 57.6 °F 56.1 °F 30.35 in Calm     95% 0.01 in meteobridge W/m2
21:10 57.6 °F 56.1 °F 30.35 in Calm     95% 0.01 in meteobridge W/m2
21:15 57.4 °F 56.3 °F 30.35 in Calm     96% 0.01 in meteobridge W/m2
21:20 57.4 °F 56.3 °F 30.35 in Calm     96% 0.01 in meteobridge W/m2
21:26 57.4 °F 56.3 °F 30.36 in Calm     96% 0.01 in meteobridge W/m2
21:31 57.2 °F 56.1 °F 30.35 in Calm     96% 0.01 in meteobridge W/m2
21:36 57.2 °F 56.1 °F 30.35 in Calm     96% 0.01 in meteobridge W/m2
21:41 57.2 °F 56.1 °F 30.35 in Calm     96% 0.01 in meteobridge W/m2
21:47 57.2 °F 56.1 °F 30.35 in Calm     96% 0.01 in meteobridge W/m2
21:52 57.0 °F 55.9 °F 30.35 in Calm     96% 0.00 in meteobridge W/m2
21:57 57.2 °F 56.1 °F 30.35 in Calm     96% 0.00 in meteobridge W/m2
22:02 57.2 °F 56.1 °F 30.34 in Calm     96% 0.00 in meteobridge W/m2
22:07 57.2 °F 56.1 °F 30.34 in Calm     96% 0.00 in meteobridge W/m2
22:13 57.2 °F 56.1 °F 30.34 in Calm     96% 0.00 in meteobridge W/m2
22:18 57.2 °F 56.1 °F 30.34 in Calm     96% 0.00 in meteobridge W/m2
22:24 57.2 °F 56.1 °F 30.34 in Calm     96% 0.00 in meteobridge W/m2
22:29 57.2 °F 56.1 °F 30.34 in Calm     96% 0.00 in meteobridge W/m2
22:35 57.2 °F 56.1 °F 30.34 in Calm     96% 0.00 in meteobridge W/m2
22:40 57.2 °F 56.1 °F 30.34 in Calm     96% 0.00 in meteobridge W/m2
22:46 57.0 °F 55.9 °F 30.34 in Calm     96% 0.00 in meteobridge W/m2
22:51 57.0 °F 55.9 °F 30.34 in Calm     96% 0.00 in meteobridge W/m2
22:56 57.0 °F 55.9 °F 30.34 in Calm     96% 0.00 in meteobridge W/m2
23:01 57.0 °F 55.9 °F 30.34 in Calm     96% 0.00 in meteobridge W/m2
23:06 57.0 °F 55.9 °F 30.34 in Calm     96% 0.00 in meteobridge W/m2
23:11 57.0 °F 55.9 °F 30.34 in Calm     96% 0.00 in meteobridge W/m2
23:16 57.0 °F 55.9 °F 30.34 in Calm     96% 0.00 in meteobridge W/m2
23:21 57.0 °F 55.9 °F 30.34 in Calm     96% 0.00 in meteobridge W/m2
23:27 57.0 °F 55.9 °F 30.34 in Calm     96% 0.00 in meteobridge W/m2
23:33 57.0 °F 55.9 °F 30.34 in Calm     96% 0.01 in meteobridge W/m2
23:39 57.0 °F 55.9 °F 30.33 in Calm     96% 0.01 in meteobridge W/m2
23:44 57.0 °F 56.1 °F 30.33 in Calm     97% 0.01 in meteobridge W/m2
23:49 57.0 °F 55.9 °F 30.34 in Calm     96% 0.02 in meteobridge W/m2
23:55 57.0 °F 56.1 °F 30.33 in Calm     97% 0.02 in meteobridge W/m2
EllijayWeather
Compliments of Weather Underground - 2.5 mb